sensor_id;sensor_type;location;lat;lon;timestamp;temperature;humidity
3330;DHT22;1677;49.576;10.990;2023-07-16T00:01:49;22.10;99.90
3330;DHT22;1677;49.576;10.990;2023-07-16T00:04:15;22.00;99.90
3330;DHT22;1677;49.576;10.990;2023-07-16T00:06:40;22.00;99.90
3330;DHT22;1677;49.576;10.990;2023-07-16T00:09:06;22.20;99.90
3330;DHT22;1677;49.576;10.990;2023-07-16T00:11:31;22.20;99.90
3330;DHT22;1677;49.576;10.990;2023-07-16T00:13:57;22.10;99.90
3330;DHT22;1677;49.576;10.990;2023-07-16T00:16:22;21.90;99.90
3330;DHT22;1677;49.576;10.990;2023-07-16T00:18:48;21.70;99.90
3330;DHT22;1677;49.576;10.990;2023-07-16T00:21:13;21.70;99.90
3330;DHT22;1677;49.576;10.990;2023-07-16T00:23:39;21.60;99.90
3330;DHT22;1677;49.576;10.990;2023-07-16T00:26:04;21.60;99.90
3330;DHT22;1677;49.576;10.990;2023-07-16T00:28:30;21.70;99.90
3330;DHT22;1677;49.576;10.990;2023-07-16T00:30:55;21.70;99.90
3330;DHT22;1677;49.576;10.990;2023-07-16T00:33:20;21.70;99.90
3330;DHT22;1677;49.576;10.990;2023-07-16T00:35:49;21.60;99.90
3330;DHT22;1677;49.576;10.990;2023-07-16T00:38:16;21.70;99.90
3330;DHT22;1677;49.576;10.990;2023-07-16T00:40:42;21.70;99.90
3330;DHT22;1677;49.576;10.990;2023-07-16T00:43:07;21.80;99.90
3330;DHT22;1677;49.576;10.990;2023-07-16T00:45:33;21.80;99.90
3330;DHT22;1677;49.576;10.990;2023-07-16T00:47:58;21.70;99.90
3330;DHT22;1677;49.576;10.990;2023-07-16T00:50:24;21.70;99.90
3330;DHT22;1677;49.576;10.990;2023-07-16T00:52:49;21.60;99.90
3330;DHT22;1677;49.576;10.990;2023-07-16T00:55:15;21.70;99.90
3330;DHT22;1677;49.576;10.990;2023-07-16T00:57:41;21.70;99.90
3330;DHT22;1677;49.576;10.990;2023-07-16T01:00:06;21.70;99.90
3330;DHT22;1677;49.576;10.990;2023-07-16T01:02:32;21.70;99.90
3330;DHT22;1677;49.576;10.990;2023-07-16T01:04:58;21.60;99.90
3330;DHT22;1677;49.576;10.990;2023-07-16T01:07:24;21.70;99.90
3330;DHT22;1677;49.576;10.990;2023-07-16T01:09:50;21.80;99.90
3330;DHT22;1677;49.576;10.990;2023-07-16T01:12:16;21.80;99.90
3330;DHT22;1677;49.576;10.990;2023-07-16T01:14:43;21.80;99.90
3330;DHT22;1677;49.576;10.990;2023-07-16T01:17:09;21.70;99.90
3330;DHT22;1677;49.576;10.990;2023-07-16T01:19:34;21.80;99.90
3330;DHT22;1677;49.576;10.990;2023-07-16T01:22:10;21.70;99.90
3330;DHT22;1677;49.576;10.990;2023-07-16T01:30:06;21.50;99.90
3330;DHT22;1677;49.576;10.990;2023-07-16T01:32:34;21.40;99.90
3330;DHT22;1677;49.576;10.990;2023-07-16T01:35:01;21.40;99.90
3330;DHT22;1677;49.576;10.990;2023-07-16T01:37:27;21.50;99.90
3330;DHT22;1677;49.576;10.990;2023-07-16T01:39:52;21.70;99.90
3330;DHT22;1677;49.576;10.990;2023-07-16T01:42:18;21.60;99.90
3330;DHT22;1677;49.576;10.990;2023-07-16T01:44:44;21.50;99.90
3330;DHT22;1677;49.576;10.990;2023-07-16T01:47:10;21.50;99.90
3330;DHT22;1677;49.576;10.990;2023-07-16T01:49:36;21.40;99.90
3330;DHT22;1677;49.576;10.990;2023-07-16T01:52:02;21.30;99.90
3330;DHT22;1677;49.576;10.990;2023-07-16T01:54:28;21.30;99.90
3330;DHT22;1677;49.576;10.990;2023-07-16T01:56:54;21.10;99.90
3330;DHT22;1677;49.576;10.990;2023-07-16T01:59:19;21.10;99.90
3330;DHT22;1677;49.576;10.990;2023-07-16T02:01:45;21.10;99.90
3330;DHT22;1677;49.576;10.990;2023-07-16T02:04:10;21.10;99.90
3330;DHT22;1677;49.576;10.990;2023-07-16T02:06:36;21.00;99.90
3330;DHT22;1677;49.576;10.990;2023-07-16T02:09:01;21.10;99.90
3330;DHT22;1677;49.576;10.990;2023-07-16T02:11:26;21.40;99.90
3330;DHT22;1677;49.576;10.990;2023-07-16T02:13:52;21.20;99.90
3330;DHT22;1677;49.576;10.990;2023-07-16T02:16:17;21.10;99.90
3330;DHT22;1677;49.576;10.990;2023-07-16T02:18:43;21.10;99.90
3330;DHT22;1677;49.576;10.990;2023-07-16T02:21:08;21.40;99.90
3330;DHT22;1677;49.576;10.990;2023-07-16T02:23:34;21.40;99.90
3330;DHT22;1677;49.576;10.990;2023-07-16T02:26:00;21.30;99.90
3330;DHT22;1677;49.576;10.990;2023-07-16T02:28:26;21.20;99.90
3330;DHT22;1677;49.576;10.990;2023-07-16T02:30:51;21.00;99.90
3330;DHT22;1677;49.576;10.990;2023-07-16T02:33:17;21.00;99.90
3330;DHT22;1677;49.576;10.990;2023-07-16T02:35:48;20.80;99.90
3330;DHT22;1677;49.576;10.990;2023-07-16T02:38:15;20.70;99.90
3330;DHT22;1677;49.576;10.990;2023-07-16T02:40:47;20.80;99.90
3330;DHT22;1677;49.576;10.990;2023-07-16T02:43:13;21.00;99.90
3330;DHT22;1677;49.576;10.990;2023-07-16T02:45:39;21.20;99.90
3330;DHT22;1677;49.576;10.990;2023-07-16T02:48:04;21.30;99.90
3330;DHT22;1677;49.576;10.990;2023-07-16T02:50:33;21.10;99.90
3330;DHT22;1677;49.576;10.990;2023-07-16T02:52:58;21.00;99.90
3330;DHT22;1677;49.576;10.990;2023-07-16T02:55:23;21.00;99.90
3330;DHT22;1677;49.576;10.990;2023-07-16T02:57:49;21.00;99.90
3330;DHT22;1677;49.576;10.990;2023-07-16T03:00:14;20.90;99.90
3330;DHT22;1677;49.576;10.990;2023-07-16T03:02:40;20.90;99.90
3330;DHT22;1677;49.576;10.990;2023-07-16T03:05:05;20.80;99.90
3330;DHT22;1677;49.576;10.990;2023-07-16T03:07:31;20.80;99.90
3330;DHT22;1677;49.576;10.990;2023-07-16T03:09:56;20.70;99.90
3330;DHT22;1677;49.576;10.990;2023-07-16T03:12:22;20.60;99.90
3330;DHT22;1677;49.576;10.990;2023-07-16T03:14:49;20.70;99.90
3330;DHT22;1677;49.576;10.990;2023-07-16T03:17:16;20.60;99.90
3330;DHT22;1677;49.576;10.990;2023-07-16T03:19:41;20.70;99.90
3330;DHT22;1677;49.576;10.990;2023-07-16T03:22:07;20.80;99.90
3330;DHT22;1677;49.576;10.990;2023-07-16T03:24:32;20.70;99.90
3330;DHT22;1677;49.576;10.990;2023-07-16T03:26:58;20.80;99.90
3330;DHT22;1677;49.576;10.990;2023-07-16T03:29:23;20.90;99.90
3330;DHT22;1677;49.576;10.990;2023-07-16T03:31:49;20.70;99.90
3330;DHT22;1677;49.576;10.990;2023-07-16T03:34:14;20.60;99.90
3330;DHT22;1677;49.576;10.990;2023-07-16T03:36:40;20.50;99.90
3330;DHT22;1677;49.576;10.990;2023-07-16T03:39:05;20.50;99.90
3330;DHT22;1677;49.576;10.990;2023-07-16T03:41:31;20.40;99.90
3330;DHT22;1677;49.576;10.990;2023-07-16T03:43:56;20.40;99.90
3330;DHT22;1677;49.576;10.990;2023-07-16T03:46:21;20.40;99.90
3330;DHT22;1677;49.576;10.990;2023-07-16T03:48:47;20.40;99.90
3330;DHT22;1677;49.576;10.990;2023-07-16T03:51:12;20.40;99.90
3330;DHT22;1677;49.576;10.990;2023-07-16T03:53:38;20.40;99.90
3330;DHT22;1677;49.576;10.990;2023-07-16T03:56:03;20.50;99.90
3330;DHT22;1677;49.576;10.990;2023-07-16T03:58:29;20.50;99.90
3330;DHT22;1677;49.576;10.990;2023-07-16T04:00:54;20.50;99.90
3330;DHT22;1677;49.576;10.990;2023-07-16T04:03:20;20.50;99.90
3330;DHT22;1677;49.576;10.990;2023-07-16T04:05:46;20.40;99.90
3330;DHT22;1677;49.576;10.990;2023-07-16T04:08:11;20.40;99.90
3330;DHT22;1677;49.576;10.990;2023-07-16T04:10:37;20.30;99.90
3330;DHT22;1677;49.576;10.990;2023-07-16T04:13:02;20.30;99.90
3330;DHT22;1677;49.576;10.990;2023-07-16T04:15:28;20.30;99.90
3330;DHT22;1677;49.576;10.990;2023-07-16T04:17:53;20.30;99.90
3330;DHT22;1677;49.576;10.990;2023-07-16T04:20:19;20.30;99.90
3330;DHT22;1677;49.576;10.990;2023-07-16T04:22:44;20.30;99.90
3330;DHT22;1677;49.576;10.990;2023-07-16T04:25:10;20.40;99.90
3330;DHT22;1677;49.576;10.990;2023-07-16T04:27:35;20.40;99.90
3330;DHT22;1677;49.576;10.990;2023-07-16T04:30:01;20.40;99.90
3330;DHT22;1677;49.576;10.990;2023-07-16T04:32:27;20.50;99.90
3330;DHT22;1677;49.576;10.990;2023-07-16T04:34:52;20.50;99.90
3330;DHT22;1677;49.576;10.990;2023-07-16T04:37:17;20.40;99.90
3330;DHT22;1677;49.576;10.990;2023-07-16T04:39:43;20.40;99.90
3330;DHT22;1677;49.576;10.990;2023-07-16T04:42:08;20.50;99.90
3330;DHT22;1677;49.576;10.990;2023-07-16T04:44:34;20.50;99.90
3330;DHT22;1677;49.576;10.990;2023-07-16T04:46:59;20.40;99.90
3330;DHT22;1677;49.576;10.990;2023-07-16T04:49:25;20.50;99.90
3330;DHT22;1677;49.576;10.990;2023-07-16T04:51:50;20.60;99.90
3330;DHT22;1677;49.576;10.990;2023-07-16T04:54:16;20.60;99.90
3330;DHT22;1677;49.576;10.990;2023-07-16T04:56:41;20.60;99.90
3330;DHT22;1677;49.576;10.990;2023-07-16T04:59:07;20.60;99.90
3330;DHT22;1677;49.576;10.990;2023-07-16T05:01:32;20.60;99.90
3330;DHT22;1677;49.576;10.990;2023-07-16T05:03:58;20.60;99.90
3330;DHT22;1677;49.576;10.990;2023-07-16T05:06:23;20.60;99.90
3330;DHT22;1677;49.576;10.990;2023-07-16T05:08:48;20.80;99.90
3330;DHT22;1677;49.576;10.990;2023-07-16T05:11:14;20.90;99.90
3330;DHT22;1677;49.576;10.990;2023-07-16T05:13:39;20.90;99.90
3330;DHT22;1677;49.576;10.990;2023-07-16T05:16:05;20.90;99.90
3330;DHT22;1677;49.576;10.990;2023-07-16T05:18:30;20.90;99.90
3330;DHT22;1677;49.576;10.990;2023-07-16T05:20:56;20.80;99.90
3330;DHT22;1677;49.576;10.990;2023-07-16T05:23:21;20.70;99.90
3330;DHT22;1677;49.576;10.990;2023-07-16T05:25:48;20.50;99.90
3330;DHT22;1677;49.576;10.990;2023-07-16T05:28:14;20.60;99.90
3330;DHT22;1677;49.576;10.990;2023-07-16T05:30:40;20.60;99.90
3330;DHT22;1677;49.576;10.990;2023-07-16T05:33:05;20.70;99.90
3330;DHT22;1677;49.576;10.990;2023-07-16T05:35:30;20.80;99.90
3330;DHT22;1677;49.576;10.990;2023-07-16T05:37:56;20.70;99.90
3330;DHT22;1677;49.576;10.990;2023-07-16T05:40:22;20.70;99.90
3330;DHT22;1677;49.576;10.990;2023-07-16T05:42:47;20.60;99.90
3330;DHT22;1677;49.576;10.990;2023-07-16T05:45:13;20.50;99.90
3330;DHT22;1677;49.576;10.990;2023-07-16T05:47:38;20.50;99.90
3330;DHT22;1677;49.576;10.990;2023-07-16T05:50:04;20.50;99.90
3330;DHT22;1677;49.576;10.990;2023-07-16T05:52:29;20.50;99.90
3330;DHT22;1677;49.576;10.990;2023-07-16T05:54:55;20.40;99.90
3330;DHT22;1677;49.576;10.990;2023-07-16T05:57:20;20.40;99.90
3330;DHT22;1677;49.576;10.990;2023-07-16T05:59:46;20.40;99.90
3330;DHT22;1677;49.576;10.990;2023-07-16T06:02:12;20.50;99.90
3330;DHT22;1677;49.576;10.990;2023-07-16T06:04:37;20.60;99.90
3330;DHT22;1677;49.576;10.990;2023-07-16T06:07:03;20.70;99.90
3330;DHT22;1677;49.576;10.990;2023-07-16T06:09:29;20.60;99.90
3330;DHT22;1677;49.576;10.990;2023-07-16T06:11:54;20.50;99.90
3330;DHT22;1677;49.576;10.990;2023-07-16T06:14:20;20.50;99.90
3330;DHT22;1677;49.576;10.990;2023-07-16T06:16:45;20.60;99.90
3330;DHT22;1677;49.576;10.990;2023-07-16T06:19:11;20.70;99.90
3330;DHT22;1677;49.576;10.990;2023-07-16T06:21:36;20.80;99.90
3330;DHT22;1677;49.576;10.990;2023-07-16T06:24:02;20.80;99.90
3330;DHT22;1677;49.576;10.990;2023-07-16T06:26:27;21.00;99.90
3330;DHT22;1677;49.576;10.990;2023-07-16T06:28:52;20.90;99.90
3330;DHT22;1677;49.576;10.990;2023-07-16T06:31:18;20.90;99.90
3330;DHT22;1677;49.576;10.990;2023-07-16T06:33:43;20.90;99.90
3330;DHT22;1677;49.576;10.990;2023-07-16T06:36:12;20.90;99.90
3330;DHT22;1677;49.576;10.990;2023-07-16T06:38:37;21.00;99.90
3330;DHT22;1677;49.576;10.990;2023-07-16T06:41:03;21.00;99.90
3330;DHT22;1677;49.576;10.990;2023-07-16T06:43:28;21.00;99.90
3330;DHT22;1677;49.576;10.990;2023-07-16T06:45:54;21.20;99.90
3330;DHT22;1677;49.576;10.990;2023-07-16T06:48:19;21.40;99.90
3330;DHT22;1677;49.576;10.990;2023-07-16T06:50:45;21.50;99.90
3330;DHT22;1677;49.576;10.990;2023-07-16T06:53:10;21.60;99.90
3330;DHT22;1677;49.576;10.990;2023-07-16T06:55:36;21.80;99.90
3330;DHT22;1677;49.576;10.990;2023-07-16T06:58:01;21.90;99.90
3330;DHT22;1677;49.576;10.990;2023-07-16T07:00:27;21.80;99.90
3330;DHT22;1677;49.576;10.990;2023-07-16T07:02:52;21.80;99.90
3330;DHT22;1677;49.576;10.990;2023-07-16T07:05:18;21.70;99.90
3330;DHT22;1677;49.576;10.990;2023-07-16T07:07:43;21.60;99.90
3330;DHT22;1677;49.576;10.990;2023-07-16T07:10:11;21.50;99.90
3330;DHT22;1677;49.576;10.990;2023-07-16T07:12:37;21.50;99.90
3330;DHT22;1677;49.576;10.990;2023-07-16T07:15:04;21.40;99.90
3330;DHT22;1677;49.576;10.990;2023-07-16T07:17:30;21.40;99.90
3330;DHT22;1677;49.576;10.990;2023-07-16T07:19:55;21.30;99.90
3330;DHT22;1677;49.576;10.990;2023-07-16T07:22:21;21.10;99.90
3330;DHT22;1677;49.576;10.990;2023-07-16T07:24:46;21.00;99.90
3330;DHT22;1677;49.576;10.990;2023-07-16T07:27:12;21.00;99.90
3330;DHT22;1677;49.576;10.990;2023-07-16T07:29:37;21.10;99.90
3330;DHT22;1677;49.576;10.990;2023-07-16T07:32:03;21.10;99.90
3330;DHT22;1677;49.576;10.990;2023-07-16T07:34:28;21.10;99.90
3330;DHT22;1677;49.576;10.990;2023-07-16T07:36:54;21.20;99.90
3330;DHT22;1677;49.576;10.990;2023-07-16T07:39:19;21.20;99.90
3330;DHT22;1677;49.576;10.990;2023-07-16T07:41:45;21.40;99.90
3330;DHT22;1677;49.576;10.990;2023-07-16T07:44:10;21.90;99.90
3330;DHT22;1677;49.576;10.990;2023-07-16T07:46:36;22.50;99.90
3330;DHT22;1677;49.576;10.990;2023-07-16T07:49:01;23.30;99.90
3330;DHT22;1677;49.576;10.990;2023-07-16T07:51:27;23.90;99.90
3330;DHT22;1677;49.576;10.990;2023-07-16T07:53:52;24.20;99.90
3330;DHT22;1677;49.576;10.990;2023-07-16T07:56:18;24.30;99.90
3330;DHT22;1677;49.576;10.990;2023-07-16T07:58:43;24.40;99.90
3330;DHT22;1677;49.576;10.990;2023-07-16T08:01:08;24.50;99.90
3330;DHT22;1677;49.576;10.990;2023-07-16T08:03:34;24.20;99.90
3330;DHT22;1677;49.576;10.990;2023-07-16T08:06:00;24.20;99.90
3330;DHT22;1677;49.576;10.990;2023-07-16T08:08:25;24.00;99.90
3330;DHT22;1677;49.576;10.990;2023-07-16T08:10:51;23.60;99.90
3330;DHT22;1677;49.576;10.990;2023-07-16T08:13:16;23.50;99.90
3330;DHT22;1677;49.576;10.990;2023-07-16T08:15:42;23.30;99.90
3330;DHT22;1677;49.576;10.990;2023-07-16T08:18:07;23.00;99.90
3330;DHT22;1677;49.576;10.990;2023-07-16T08:20:35;22.80;99.90
3330;DHT22;1677;49.576;10.990;2023-07-16T08:23:00;22.90;99.90
3330;DHT22;1677;49.576;10.990;2023-07-16T08:25:26;22.90;99.90
3330;DHT22;1677;49.576;10.990;2023-07-16T08:27:52;22.80;99.90
3330;DHT22;1677;49.576;10.990;2023-07-16T08:30:17;22.80;99.90
3330;DHT22;1677;49.576;10.990;2023-07-16T08:32:43;23.10;99.90
3330;DHT22;1677;49.576;10.990;2023-07-16T08:35:08;23.30;99.90
3330;DHT22;1677;49.576;10.990;2023-07-16T08:37:40;23.60;99.90
3330;DHT22;1677;49.576;10.990;2023-07-16T08:40:06;23.60;99.90
3330;DHT22;1677;49.576;10.990;2023-07-16T08:42:32;23.50;99.90
3330;DHT22;1677;49.576;10.990;2023-07-16T08:44:57;23.60;99.90
3330;DHT22;1677;49.576;10.990;2023-07-16T08:47:23;23.60;99.90
3330;DHT22;1677;49.576;10.990;2023-07-16T08:49:55;23.80;99.90
3330;DHT22;1677;49.576;10.990;2023-07-16T08:52:26;24.30;99.90
3330;DHT22;1677;49.576;10.990;2023-07-16T08:54:52;24.80;99.90
3330;DHT22;1677;49.576;10.990;2023-07-16T08:57:17;25.10;99.90
3330;DHT22;1677;49.576;10.990;2023-07-16T08:59:44;25.80;99.90
3330;DHT22;1677;49.576;10.990;2023-07-16T09:02:12;26.00;99.90
3330;DHT22;1677;49.576;10.990;2023-07-16T09:04:37;26.30;99.80
3330;DHT22;1677;49.576;10.990;2023-07-16T09:07:03;26.90;98.90
3330;DHT22;1677;49.576;10.990;2023-07-16T09:09:29;27.50;97.00
3330;DHT22;1677;49.576;10.990;2023-07-16T09:11:55;27.80;95.80
3330;DHT22;1677;49.576;10.990;2023-07-16T09:14:21;28.20;93.40
3330;DHT22;1677;49.576;10.990;2023-07-16T09:16:47;28.70;94.30
3330;DHT22;1677;49.576;10.990;2023-07-16T09:19:13;28.90;93.60
3330;DHT22;1677;49.576;10.990;2023-07-16T09:21:40;28.90;92.10
3330;DHT22;1677;49.576;10.990;2023-07-16T09:24:07;28.90;90.40
3330;DHT22;1677;49.576;10.990;2023-07-16T09:26:32;28.80;90.20
3330;DHT22;1677;49.576;10.990;2023-07-16T09:28:58;28.50;91.10
3330;DHT22;1677;49.576;10.990;2023-07-16T09:31:23;28.00;91.60
3330;DHT22;1677;49.576;10.990;2023-07-16T09:33:49;27.60;91.60
3330;DHT22;1677;49.576;10.990;2023-07-16T09:36:22;27.30;92.90
3330;DHT22;1677;49.576;10.990;2023-07-16T09:38:48;27.30;92.70
3330;DHT22;1677;49.576;10.990;2023-07-16T09:41:13;27.20;94.00
3330;DHT22;1677;49.576;10.990;2023-07-16T09:43:39;27.30;92.70
3330;DHT22;1677;49.576;10.990;2023-07-16T09:46:06;27.40;90.10
3330;DHT22;1677;49.576;10.990;2023-07-16T09:48:31;27.30;91.30
3330;DHT22;1677;49.576;10.990;2023-07-16T09:50:57;27.50;91.80
3330;DHT22;1677;49.576;10.990;2023-07-16T09:53:23;27.50;91.50
3330;DHT22;1677;49.576;10.990;2023-07-16T09:55:49;27.40;91.50
3330;DHT22;1677;49.576;10.990;2023-07-16T09:58:17;27.20;90.30
3330;DHT22;1677;49.576;10.990;2023-07-16T10:00:44;27.10;91.50
3330;DHT22;1677;49.576;10.990;2023-07-16T10:03:11;27.00;91.00
3330;DHT22;1677;49.576;10.990;2023-07-16T10:05:37;26.90;90.10
3330;DHT22;1677;49.576;10.990;2023-07-16T10:08:02;26.80;91.50
3330;DHT22;1677;49.576;10.990;2023-07-16T10:10:41;27.00;89.50
3330;DHT22;1677;49.576;10.990;2023-07-16T10:13:08;26.90;88.00
3330;DHT22;1677;49.576;10.990;2023-07-16T10:15:34;27.00;88.90
3330;DHT22;1677;49.576;10.990;2023-07-16T10:17:59;27.10;90.40
3330;DHT22;1677;49.576;10.990;2023-07-16T10:20:32;27.80;90.30
3330;DHT22;1677;49.576;10.990;2023-07-16T10:22:58;28.50;88.10
3330;DHT22;1677;49.576;10.990;2023-07-16T10:25:27;28.50;86.90
3330;DHT22;1677;49.576;10.990;2023-07-16T10:27:53;28.70;88.00
3330;DHT22;1677;49.576;10.990;2023-07-16T10:30:19;29.80;80.90
3330;DHT22;1677;49.576;10.990;2023-07-16T10:32:45;30.50;78.60
3330;DHT22;1677;49.576;10.990;2023-07-16T10:35:11;31.40;73.20
3330;DHT22;1677;49.576;10.990;2023-07-16T10:37:37;31.10;73.80
3330;DHT22;1677;49.576;10.990;2023-07-16T10:40:03;31.10;72.00
3330;DHT22;1677;49.576;10.990;2023-07-16T10:42:29;31.30;70.70
3330;DHT22;1677;49.576;10.990;2023-07-16T10:44:59;31.20;69.90
3330;DHT22;1677;49.576;10.990;2023-07-16T10:47:29;30.60;68.90
3330;DHT22;1677;49.576;10.990;2023-07-16T10:49:54;30.20;69.50
3330;DHT22;1677;49.576;10.990;2023-07-16T10:52:23;29.90;69.70
3330;DHT22;1677;49.576;10.990;2023-07-16T10:54:49;29.70;69.90
3330;DHT22;1677;49.576;10.990;2023-07-16T10:57:15;29.80;69.70
3330;DHT22;1677;49.576;10.990;2023-07-16T10:59:41;29.50;67.90
3330;DHT22;1677;49.576;10.990;2023-07-16T11:02:12;28.70;72.00
3330;DHT22;1677;49.576;10.990;2023-07-16T11:04:39;28.30;73.70
3330;DHT22;1677;49.576;10.990;2023-07-16T11:07:05;28.40;75.00
3330;DHT22;1677;49.576;10.990;2023-07-16T11:09:31;29.10;73.30
3330;DHT22;1677;49.576;10.990;2023-07-16T11:12:04;30.10;72.40
3330;DHT22;1677;49.576;10.990;2023-07-16T11:14:30;31.40;67.20
3330;DHT22;1677;49.576;10.990;2023-07-16T11:17:03;31.10;63.80
3330;DHT22;1677;49.576;10.990;2023-07-16T11:19:30;31.60;65.30
3330;DHT22;1677;49.576;10.990;2023-07-16T11:21:56;32.60;59.60
3330;DHT22;1677;49.576;10.990;2023-07-16T11:24:21;33.30;57.00
3330;DHT22;1677;49.576;10.990;2023-07-16T11:26:50;32.80;55.50
3330;DHT22;1677;49.576;10.990;2023-07-16T11:29:16;31.50;56.60
3330;DHT22;1677;49.576;10.990;2023-07-16T11:31:41;30.40;57.40
3330;DHT22;1677;49.576;10.990;2023-07-16T11:34:07;29.80;60.20
3330;DHT22;1677;49.576;10.990;2023-07-16T11:36:33;29.80;60.60
3330;DHT22;1677;49.576;10.990;2023-07-16T11:38:58;30.10;59.80
3330;DHT22;1677;49.576;10.990;2023-07-16T11:41:24;31.10;59.10
3330;DHT22;1677;49.576;10.990;2023-07-16T11:43:50;31.70;57.20
3330;DHT22;1677;49.576;10.990;2023-07-16T11:46:16;31.70;57.00
3330;DHT22;1677;49.576;10.990;2023-07-16T11:48:41;31.70;58.50
3330;DHT22;1677;49.576;10.990;2023-07-16T11:51:07;31.20;57.20
3330;DHT22;1677;49.576;10.990;2023-07-16T11:53:33;30.60;57.60
3330;DHT22;1677;49.576;10.990;2023-07-16T11:55:58;30.60;57.70
3330;DHT22;1677;49.576;10.990;2023-07-16T11:58:24;31.20;57.10
3330;DHT22;1677;49.576;10.990;2023-07-16T12:00:49;31.30;57.80
3330;DHT22;1677;49.576;10.990;2023-07-16T12:03:16;31.60;58.50
3330;DHT22;1677;49.576;10.990;2023-07-16T12:05:42;32.00;58.00
3330;DHT22;1677;49.576;10.990;2023-07-16T12:08:07;32.20;57.70
3330;DHT22;1677;49.576;10.990;2023-07-16T12:10:42;31.90;55.00
3330;DHT22;1677;49.576;10.990;2023-07-16T12:13:07;31.40;56.20
3330;DHT22;1677;49.576;10.990;2023-07-16T12:15:33;30.90;56.50
3330;DHT22;1677;49.576;10.990;2023-07-16T12:17:59;30.60;59.90
3330;DHT22;1677;49.576;10.990;2023-07-16T12:20:24;30.30;60.00
3330;DHT22;1677;49.576;10.990;2023-07-16T12:22:50;29.90;62.30
3330;DHT22;1677;49.576;10.990;2023-07-16T12:25:16;29.50;61.20
3330;DHT22;1677;49.576;10.990;2023-07-16T12:27:42;29.60;61.00
3330;DHT22;1677;49.576;10.990;2023-07-16T12:30:07;30.10;61.10
3330;DHT22;1677;49.576;10.990;2023-07-16T12:32:33;30.90;58.40
3330;DHT22;1677;49.576;10.990;2023-07-16T12:34:59;31.20;58.60
3330;DHT22;1677;49.576;10.990;2023-07-16T12:37:25;31.10;57.00
3330;DHT22;1677;49.576;10.990;2023-07-16T12:39:51;30.50;58.30
3330;DHT22;1677;49.576;10.990;2023-07-16T12:42:16;29.90;57.50
3330;DHT22;1677;49.576;10.990;2023-07-16T12:44:42;29.10;58.40
3330;DHT22;1677;49.576;10.990;2023-07-16T12:47:07;29.30;61.50
3330;DHT22;1677;49.576;10.990;2023-07-16T12:49:34;29.70;60.00
3330;DHT22;1677;49.576;10.990;2023-07-16T12:51:59;29.80;59.80
3330;DHT22;1677;49.576;10.990;2023-07-16T12:54:25;29.80;60.40
3330;DHT22;1677;49.576;10.990;2023-07-16T12:56:50;29.90;60.40
3330;DHT22;1677;49.576;10.990;2023-07-16T12:59:15;29.70;57.60
3330;DHT22;1677;49.576;10.990;2023-07-16T13:01:41;29.90;58.40
3330;DHT22;1677;49.576;10.990;2023-07-16T13:04:06;30.10;59.60
3330;DHT22;1677;49.576;10.990;2023-07-16T13:06:32;30.20;59.80
3330;DHT22;1677;49.576;10.990;2023-07-16T13:08:58;30.40;59.40
3330;DHT22;1677;49.576;10.990;2023-07-16T13:11:24;30.60;58.90
3330;DHT22;1677;49.576;10.990;2023-07-16T13:13:50;30.90;58.60
3330;DHT22;1677;49.576;10.990;2023-07-16T13:16:15;31.00;56.10
3330;DHT22;1677;49.576;10.990;2023-07-16T13:18:41;31.10;56.00
3330;DHT22;1677;49.576;10.990;2023-07-16T13:21:06;31.00;57.30
3330;DHT22;1677;49.576;10.990;2023-07-16T13:23:32;31.10;56.40
3330;DHT22;1677;49.576;10.990;2023-07-16T13:25:57;30.90;55.10
3330;DHT22;1677;49.576;10.990;2023-07-16T13:28:23;30.80;58.60
3330;DHT22;1677;49.576;10.990;2023-07-16T13:30:49;30.90;57.50
3330;DHT22;1677;49.576;10.990;2023-07-16T13:33:15;30.90;57.50
3330;DHT22;1677;49.576;10.990;2023-07-16T13:35:40;31.00;56.90
3330;DHT22;1677;49.576;10.990;2023-07-16T13:38:06;31.00;56.20
3330;DHT22;1677;49.576;10.990;2023-07-16T13:40:31;31.00;57.50
3330;DHT22;1677;49.576;10.990;2023-07-16T13:42:57;31.10;57.20
3330;DHT22;1677;49.576;10.990;2023-07-16T13:45:23;31.00;57.00
3330;DHT22;1677;49.576;10.990;2023-07-16T13:47:49;31.10;56.60
3330;DHT22;1677;49.576;10.990;2023-07-16T13:50:16;30.80;57.40
3330;DHT22;1677;49.576;10.990;2023-07-16T13:52:42;30.70;55.70
3330;DHT22;1677;49.576;10.990;2023-07-16T13:55:07;30.70;57.60
3330;DHT22;1677;49.576;10.990;2023-07-16T13:57:33;30.70;58.40
3330;DHT22;1677;49.576;10.990;2023-07-16T13:59:58;30.90;58.50
3330;DHT22;1677;49.576;10.990;2023-07-16T14:02:25;31.20;59.00
3330;DHT22;1677;49.576;10.990;2023-07-16T14:04:51;31.10;56.50
3330;DHT22;1677;49.576;10.990;2023-07-16T14:07:16;31.10;56.00
3330;DHT22;1677;49.576;10.990;2023-07-16T14:09:42;31.30;55.80
3330;DHT22;1677;49.576;10.990;2023-07-16T14:12:07;31.60;55.30
3330;DHT22;1677;49.576;10.990;2023-07-16T14:14:33;31.70;56.20
3330;DHT22;1677;49.576;10.990;2023-07-16T14:16:58;32.00;56.00
3330;DHT22;1677;49.576;10.990;2023-07-16T14:19:24;32.10;54.80
3330;DHT22;1677;49.576;10.990;2023-07-16T14:21:49;31.50;54.10
3330;DHT22;1677;49.576;10.990;2023-07-16T14:24:15;31.00;54.00
3330;DHT22;1677;49.576;10.990;2023-07-16T14:26:46;30.40;56.50
3330;DHT22;1677;49.576;10.990;2023-07-16T14:29:12;30.10;55.70
3330;DHT22;1677;49.576;10.990;2023-07-16T14:31:38;30.10;57.00
3330;DHT22;1677;49.576;10.990;2023-07-16T14:34:03;30.20;56.20
3330;DHT22;1677;49.576;10.990;2023-07-16T14:36:29;30.10;56.30
3330;DHT22;1677;49.576;10.990;2023-07-16T14:38:54;29.90;57.40
3330;DHT22;1677;49.576;10.990;2023-07-16T14:41:21;29.50;57.70
3330;DHT22;1677;49.576;10.990;2023-07-16T14:43:47;29.30;58.90
3330;DHT22;1677;49.576;10.990;2023-07-16T14:46:15;29.30;59.30
3330;DHT22;1677;49.576;10.990;2023-07-16T14:48:42;29.30;59.40
3330;DHT22;1677;49.576;10.990;2023-07-16T14:51:09;29.30;58.00
3330;DHT22;1677;49.576;10.990;2023-07-16T14:53:35;29.30;58.90
3330;DHT22;1677;49.576;10.990;2023-07-16T14:56:00;29.30;59.90
3330;DHT22;1677;49.576;10.990;2023-07-16T14:58:26;29.20;58.00
3330;DHT22;1677;49.576;10.990;2023-07-16T15:00:51;29.10;60.00
3330;DHT22;1677;49.576;10.990;2023-07-16T15:03:17;29.20;60.40
3330;DHT22;1677;49.576;10.990;2023-07-16T15:05:42;29.20;58.50
3330;DHT22;1677;49.576;10.990;2023-07-16T15:08:08;29.20;60.00
3330;DHT22;1677;49.576;10.990;2023-07-16T15:10:33;29.00;59.10
3330;DHT22;1677;49.576;10.990;2023-07-16T15:12:59;28.90;59.00
3330;DHT22;1677;49.576;10.990;2023-07-16T15:15:24;28.60;60.90
3330;DHT22;1677;49.576;10.990;2023-07-16T15:17:50;28.60;62.30
3330;DHT22;1677;49.576;10.990;2023-07-16T15:20:15;28.90;60.50
3330;DHT22;1677;49.576;10.990;2023-07-16T15:22:41;29.10;59.10
3330;DHT22;1677;49.576;10.990;2023-07-16T15:25:06;29.10;59.70
3330;DHT22;1677;49.576;10.990;2023-07-16T15:27:32;29.20;58.50
3330;DHT22;1677;49.576;10.990;2023-07-16T15:29:58;29.30;58.40
3330;DHT22;1677;49.576;10.990;2023-07-16T15:32:23;29.10;58.40
3330;DHT22;1677;49.576;10.990;2023-07-16T15:34:48;28.70;60.50
3330;DHT22;1677;49.576;10.990;2023-07-16T15:37:14;28.60;61.60
3330;DHT22;1677;49.576;10.990;2023-07-16T15:39:40;28.60;61.80
3330;DHT22;1677;49.576;10.990;2023-07-16T15:42:05;28.70;63.90